Time;durP1;ratioP1;P1;durP2;ratioP2;P2;SDS_P1;SDS_P2;PMS_P1;PMS_P2;Temp;Humidity;BMP_temperature;BMP_pressure;BME280_temperature;BME280_humidity;BME280_pressure;Samples;Min_cycle;Max_cycle;Signal;HPM_P1;HPM_P2
2020/12/14 00:00:10;;;;;;;7.63;3.17;;;6.50;92.70;;;;;;5073642;28;20105;-62
2020/12/14 00:09:48;;;;;;;7.75;2.22;;;6.60;92.70;;;;;;5074414;28;20598;-62
2020/12/14 00:12:35;;;;;;;5.85;2.50;;;6.50;93.10;;;;;;5059280;28;20142;-62
2020/12/14 00:15:27;;;;;;;6.28;2.90;;;6.50;92.70;;;;;;5073128;28;20473;-62
2020/12/14 00:22:18;;;;;;;6.00;2.65;;;6.50;93.40;;;;;;5068492;28;20115;-62
2020/12/14 00:32:33;;;;;;;5.72;2.50;;;6.50;92.70;;;;;;5073497;28;20439;-62
2020/12/14 00:35:22;;;;;;;11.85;3.35;;;6.50;93.00;;;;;;5069162;28;20037;-62
2020/12/14 00:42:21;;;;;;;7.60;2.35;;;6.60;93.10;;;;;;5066855;28;20039;-63
2020/12/14 00:45:01;;;;;;;7.63;2.40;;;6.60;94.20;;;;;;5053703;28;20087;-62
2020/12/14 00:47:29;;;;;;;5.30;2.20;;;6.50;94.80;;;;;;5068815;28;20086;-62
2020/12/14 00:50:15;;;;;;;4.35;1.92;;;6.50;95.40;;;;;;5067771;28;20057;-62
2020/12/14 00:52:43;;;;;;;7.40;2.75;;;6.50;96.00;;;;;;5073332;28;20052;-62
2020/12/14 00:55:15;;;;;;;5.90;2.25;;;6.40;95.30;;;;;;5055806;28;20055;-62
2020/12/14 00:57:43;;;;;;;5.03;2.50;;;6.30;95.50;;;;;;5073356;28;20048;-62
2020/12/14 01:03:55;;;;;;;4.93;1.85;;;6.30;95.80;;;;;;5054760;28;20039;-63
2020/12/14 01:10:29;;;;;;;8.25;2.72;;;6.30;95.70;;;;;;5073214;28;20066;-62
2020/12/14 01:13:01;;;;;;;;;;;6.30;96.10;;;;;;5073715;28;20400;-62
2020/12/14 01:15:43;;;;;;;9.27;2.53;;;6.20;96.20;;;;;;5073466;28;20280;-62
2020/12/14 01:18:10;;;;;;;7.97;2.45;;;6.20;95.80;;;;;;5058254;28;20126;-62
2020/12/14 01:25:05;;;;;;;7.80;2.47;;;6.20;96.40;;;;;;5058764;28;20032;-62
2020/12/14 01:27:36;;;;;;;5.75;2.42;;;6.20;96.10;;;;;;5053877;28;20083;-62
2020/12/14 01:30:31;;;;;;;3.72;1.83;;;6.20;96.40;;;;;;5054759;28;20054;-62
2020/12/14 01:33:14;;;;;;;3.85;2.08;;;6.20;96.20;;;;;;5073833;28;20456;-62
2020/12/14 01:35:46;;;;;;;6.15;2.40;;;6.30;96.50;;;;;;5066138;28;20557;-62
2020/12/14 01:42:38;;;;;;;7.07;2.53;;;6.30;95.80;;;;;;5072804;28;20035;-62
2020/12/14 01:45:29;;;;;;;6.80;2.92;;;6.20;96.20;;;;;;5072366;28;20127;-62
2020/12/14 01:48:21;;;;;;;8.82;3.30;;;6.30;95.80;;;;;;5072923;28;20124;-62
2020/12/14 01:50:47;;;;;;;3.40;2.08;;;6.30;96.00;;;;;;5057093;28;20053;-62
2020/12/14 01:53:20;;;;;;;8.13;2.75;;;6.30;96.00;;;;;;5072851;28;20051;-62
2020/12/14 02:00:07;;;;;;;7.38;2.92;;;6.30;95.80;;;;;;5072635;28;20483;-62
2020/12/14 02:02:36;;;;;;;5.85;3.22;;;6.30;95.90;;;;;;5068325;28;20074;-62
2020/12/14 02:05:17;;;;;;;7.85;3.15;;;6.30;96.00;;;;;;5053022;28;20047;-62
2020/12/14 02:07:57;;;;;;;5.63;2.88;;;6.30;96.00;;;;;;5053278;28;20075;-62
2020/12/14 02:15:07;;;;;;;6.15;2.78;;;6.30;96.40;;;;;;5068085;28;20104;-62
2020/12/14 02:17:42;;;;;;;5.07;2.78;;;6.40;96.20;;;;;;5056515;28;20500;-62
2020/12/14 02:20:14;;;;;;;7.95;3.17;;;6.40;96.60;;;;;;5072059;28;20045;-62
2020/12/14 02:22:40;;;;;;;8.45;3.17;;;6.40;95.80;;;;;;5070934;28;20526;-62
2020/12/14 02:25:10;;;;;;;6.50;2.22;;;6.30;95.70;;;;;;5076665;28;20044;-62
2020/12/14 02:27:43;;;;;;;10.75;3.20;;;6.40;96.00;;;;;;5076112;28;20480;-62
2020/12/14 02:30:10;;;;;;;9.02;2.70;;;6.40;96.00;;;;;;5076091;28;20068;-62
2020/12/14 02:33:02;;;;;;;8.93;2.83;;;6.40;95.40;;;;;;5075132;28;20048;-62
2020/12/14 02:35:54;;;;;;;6.97;2.47;;;6.40;95.70;;;;;;5073212;28;20131;-62
2020/12/14 02:42:37;;;;;;;4.30;2.10;;;6.40;95.40;;;;;;5075387;28;20552;-62
2020/12/14 02:52:38;;;;;;;6.00;2.53;;;6.50;95.80;;;;;;5067104;28;20051;-62
2020/12/14 02:55:28;;;;;;;8.00;3.10;;;6.50;95.30;;;;;;5056195;28;20033;-62
2020/12/14 03:12:44;;;;;;;8.30;2.53;;;6.50;95.00;;;;;;5075187;28;20050;-62
2020/12/14 03:15:39;;;;;;;11.55;3.10;;;6.60;95.20;;;;;;5073177;28;20131;-62
2020/12/14 03:18:17;;;;;;;8.35;2.30;;;6.60;94.60;;;;;;5058432;28;20037;-62
2020/12/14 03:25:12;;;;;;;7.53;2.78;;;6.60;95.00;;;;;;5062104;28;20090;-62
2020/12/14 03:27:38;;;;;;;7.20;2.05;;;6.60;94.70;;;;;;5069927;28;20112;-62
2020/12/14 03:30:14;;;;;;;7.45;2.15;;;6.60;95.30;;;;;;5075063;28;20119;-62
2020/12/14 03:32:48;;;;;;;5.13;2.30;;;6.60;95.40;;;;;;5074871;28;20064;-62
2020/12/14 03:35:16;;;;;;;5.55;2.40;;;6.60;95.60;;;;;;5075106;28;20048;-62
2020/12/14 03:38:09;;;;;;;9.25;3.60;;;6.60;95.40;;;;;;5073355;28;20059;-62
2020/12/14 03:45:15;;;;;;;6.22;2.75;;;6.60;94.60;;;;;;5074656;28;20121;-62
2020/12/14 03:47:56;;;;;;;7.88;2.67;;;6.60;95.00;;;;;;5069706;28;20032;-63
2020/12/14 03:50:57;;;;;;;6.80;2.33;;;6.60;95.30;;;;;;5073602;28;20488;-62
2020/12/14 03:57:42;;;;;;;10.43;2.42;;;6.60;95.50;;;;;;5074408;28;20039;-62
2020/12/14 04:00:22;;;;;;;4.30;2.53;;;6.60;96.10;;;;;;5054699;28;20096;-62
2020/12/14 04:03:17;;;;;;;5.80;2.60;;;6.60;95.90;;;;;;5071466;28;20119;-62
2020/12/14 04:05:48;;;;;;;6.43;2.75;;;6.60;95.80;;;;;;5058050;28;20126;-62
2020/12/14 04:12:45;;;;;;;6.68;2.60;;;6.60;95.20;;;;;;5068571;28;20047;-62
2020/12/14 04:16:06;;;;;;;5.60;2.17;;;6.60;95.60;;;;;;5073278;28;20052;-62
2020/12/14 04:22:48;;;;;;;9.23;2.88;;;6.60;95.40;;;;;;5073880;28;20035;-63
2020/12/14 04:25:16;;;;;;;8.07;3.05;;;6.60;95.30;;;;;;5074002;28;20041;-63
2020/12/14 04:27:45;;;;;;;9.30;3.08;;;6.60;95.60;;;;;;5070349;28;20473;-63
2020/12/14 04:30:21;;;;;;;7.47;2.75;;;6.60;95.00;;;;;;5073749;28;20381;-62
2020/12/14 04:32:53;;;;;;;7.28;3.20;;;6.60;95.30;;;;;;5073828;28;20495;-62
2020/12/14 04:35:32;;;;;;;7.03;2.55;;;6.60;95.40;;;;;;5072497;28;20037;-62
2020/12/14 04:38:03;;;;;;;5.15;2.70;;;6.60;95.80;;;;;;5055303;28;20041;-63
2020/12/14 04:40:52;;;;;;;5.53;3.10;;;6.60;95.80;;;;;;5054371;28;20492;-62
2020/12/14 04:47:45;;;;;;;7.07;2.40;;;6.60;95.30;;;;;;5073458;28;20047;-63
2020/12/14 04:50:59;;;;;;;8.60;2.70;;;6.60;95.70;;;;;;5069645;28;20049;-62
2020/12/14 04:53:28;;;;;;;7.90;2.60;;;6.60;96.00;;;;;;5073369;28;20511;-62
2020/12/14 05:00:25;;;;;;;7.13;3.13;;;6.60;95.80;;;;;;5073190;28;20034;-63
2020/12/14 05:03:00;;;;;;;6.75;2.63;;;6.60;95.60;;;;;;5072674;28;20047;-62
2020/12/14 05:05:56;;;;;;;5.13;2.30;;;6.70;95.80;;;;;;5070014;28;20045;-63
2020/12/14 05:08:33;;;;;;;6.60;2.42;;;6.70;95.80;;;;;;5064322;28;20047;-62
2020/12/14 05:11:37;;;;;;;5.85;2.60;;;6.70;95.70;;;;;;5074182;28;20055;-62
2020/12/14 05:18:12;;;;;;;7.25;2.80;;;6.70;95.90;;;;;;5073109;28;20039;-62
2020/12/14 05:35:33;;;;;;;8.10;3.05;;;6.80;96.00;;;;;;5069298;28;20048;-63
2020/12/14 05:38:47;;;;;;;7.20;3.03;;;6.80;96.50;;;;;;5072476;28;20044;-62
2020/12/14 05:45:25;;;;;;;5.72;3.22;;;6.80;97.10;;;;;;5072677;28;20602;-63
2020/12/14 05:48:39;;;;;;;4.28;2.60;;;6.80;97.50;;;;;;5054660;28;20045;-63
2020/12/14 05:55:44;;;;;;;5.22;2.63;;;6.70;98.10;;;;;;5076263;28;20097;-63
2020/12/14 05:58:31;;;;;;;8.02;3.25;;;6.70;98.30;;;;;;5076571;28;20050;-63
2020/12/14 06:05:08;;;;;;;5.53;3.40;;;6.70;98.50;;;;;;5076406;28;20106;-63
2020/12/14 06:15:36;;;;;;;5.70;3.22;;;6.70;99.30;;;;;;5076561;28;20189;-63
2020/12/14 06:22:35;;;;;;;9.00;3.75;;;6.70;99.50;;;;;;5072806;28;20055;-62
2020/12/14 06:25:25;;;;;;;8.10;3.92;;;6.70;99.70;;;;;;5061897;28;20099;-62
2020/12/14 06:28:33;;;;;;;6.32;3.85;;;6.70;99.90;;;;;;5075353;28;20128;-62
2020/12/14 06:31:04;;;;;;;9.82;5.13;;;6.70;99.90;;;;;;5075710;28;20036;-62
2020/12/14 06:38:12;;;;;;;9.90;4.93;;;6.70;99.90;;;;;;5071856;28;20121;-63
2020/12/14 06:45:06;;;;;;;9.13;3.80;;;6.70;99.90;;;;;;5075587;28;20031;-63
2020/12/14 06:47:54;;;;;;;7.47;4.80;;;6.70;99.90;;;;;;5058036;28;20060;-62
2020/12/14 06:54:00;;;;;;;8.57;4.70;;;6.70;99.90;;;;;;5072178;28;20059;-62
2020/12/14 06:56:53;;;;;;;11.52;6.03;;;6.70;99.90;;;;;;5075496;28;20052;-63
2020/12/14 07:00:01;;;;;;;8.02;4.57;;;6.80;99.90;;;;;;5074597;28;20495;-62
2020/12/14 07:10:13;;;;;;;8.23;4.40;;;6.70;99.90;;;;;;5055563;28;20082;-65
2020/12/14 07:12:45;;;;;;;6.78;4.47;;;6.80;99.90;;;;;;5068490;28;20047;-66
2020/12/14 07:16:08;;;;;;;7.07;3.65;;;6.80;99.90;;;;;;5074538;28;20472;-66
2020/12/14 07:18:37;;;;;;;7.50;5.32;;;6.80;99.90;;;;;;5063065;28;20050;-68
2020/12/14 07:25:06;;;;;;;5.70;3.95;;;6.80;99.90;;;;;;5075044;28;20035;-66
2020/12/14 07:27:42;;;;;;;6.38;4.57;;;6.80;99.90;;;;;;5075374;28;20045;-66
2020/12/14 07:30:22;;;;;;;7.75;5.07;;;6.80;99.90;;;;;;5070579;28;20098;-64
2020/12/14 07:36:46;;;;;;;7.88;4.45;;;6.90;99.90;;;;;;5058543;28;20500;-63
2020/12/14 07:39:18;;;;;;;;;;;6.90;99.90;;;;;;5071812;28;20044;-63
2020/12/14 07:41:48;;;;;;;6.88;4.82;;;6.90;99.90;;;;;;5074368;28;19971;-62
2020/12/14 07:44:22;;;;;;;7.05;4.65;;;7.00;99.90;;;;;;5074840;28;20443;-62
2020/12/14 07:47:20;;;;;;;8.45;5.85;;;7.00;99.90;;;;;;5073775;28;20044;-62
2020/12/14 07:50:12;;;;;;;9.38;5.78;;;7.00;99.90;;;;;;5074604;28;20048;-63
2020/12/14 07:57:06;;;;;;;10.50;5.93;;;7.00;99.90;;;;;;5055181;28;20126;-63
2020/12/14 07:59:54;;;;;;;8.93;5.47;;;7.10;99.90;;;;;;5074266;28;20468;-63
2020/12/14 08:02:29;;;;;;;10.38;5.55;;;7.10;99.90;;;;;;5058143;28;20066;-63
2020/12/14 08:05:15;;;;;;;10.75;5.68;;;7.10;99.90;;;;;;5074121;28;20072;-63
2020/12/14 08:08:04;;;;;;;7.60;4.78;;;7.20;99.90;;;;;;5074633;28;20476;-63
2020/12/14 08:14:30;;;;;;;7.03;4.65;;;7.20;99.90;;;;;;5074046;28;20052;-63
2020/12/14 08:17:12;;;;;;;8.77;5.28;;;7.20;99.90;;;;;;5073351;28;20131;-64
2020/12/14 08:19:45;;;;;;;7.97;5.95;;;7.20;99.90;;;;;;5055881;28;20358;-63
2020/12/14 08:22:33;;;;;;;7.93;4.60;;;7.20;99.90;;;;;;5074525;28;20048;-63
2020/12/14 08:25:25;;;;;;;7.28;5.13;;;7.30;99.90;;;;;;5058531;28;20443;-63
2020/12/14 08:28:00;;;;;;;8.02;4.78;;;7.30;99.90;;;;;;5061533;28;20036;-63
2020/12/14 08:34:37;;;;;;;8.45;5.05;;;7.30;99.90;;;;;;5073582;28;19982;-64
2020/12/14 08:37:05;;;;;;;9.10;4.90;;;7.30;99.90;;;;;;5072534;28;20036;-64
2020/12/14 08:40:08;;;;;;;8.00;5.60;;;7.40;99.90;;;;;;5054258;28;20037;-65
2020/12/14 08:42:40;;;;;;;6.50;4.35;;;7.40;99.90;;;;;;5058713;28;20052;-64
2020/12/14 08:49:33;;;;;;;8.55;4.80;;;7.40;99.90;;;;;;5073466;28;20094;-63
2020/12/14 08:52:02;;;;;;;8.73;4.47;;;7.40;99.90;;;;;;5059585;28;20194;-64
2020/12/14 08:54:55;;;;;;;8.48;4.85;;;7.50;99.90;;;;;;5059608;28;20148;-65
2020/12/14 08:57:32;;;;;;;7.38;5.40;;;7.50;99.90;;;;;;5073433;28;20044;-63
2020/12/14 09:04:30;;;;;;;7.93;4.72;;;7.50;99.90;;;;;;5073061;28;20055;-63
2020/12/14 09:07:44;;;;;;;10.43;5.72;;;7.50;99.90;;;;;;5069840;28;20504;-63
2020/12/14 09:14:31;;;;;;;7.75;5.50;;;7.60;99.90;;;;;;5072850;28;20047;-63
2020/12/14 09:17:04;;;;;;;8.00;5.18;;;7.50;99.90;;;;;;5069394;28;20052;-63
2020/12/14 09:20:12;;;;;;;8.38;5.28;;;7.60;99.90;;;;;;5069189;28;20053;-63
2020/12/14 09:22:39;;;;;;;8.98;4.97;;;7.60;99.90;;;;;;5073499;28;20123;-63
2020/12/14 09:29:29;;;;;;;9.73;5.55;;;7.60;99.90;;;;;;5058361;28;20099;-63
2020/12/14 09:32:03;;;;;;;7.35;5.15;;;7.60;99.90;;;;;;5053201;28;20060;-63
2020/12/14 09:35:00;;;;;;;6.40;3.65;;;7.60;99.90;;;;;;5053396;28;20041;-63
2020/12/14 09:37:44;;;;;;;5.85;3.55;;;7.60;99.90;;;;;;5072688;28;20044;-63
2020/12/14 09:44:37;;;;;;;7.25;4.38;;;7.70;99.90;;;;;;5072897;28;20044;-63
2020/12/14 09:47:04;;;;;;;8.77;4.72;;;7.70;99.90;;;;;;5057436;28;20400;-62
2020/12/14 09:49:30;;;;;;;6.22;4.20;;;7.70;99.90;;;;;;5053077;28;20049;-62
2020/12/14 09:52:08;;;;;;;7.63;3.70;;;7.80;99.90;;;;;;5072898;28;20146;-63
2020/12/14 09:59:35;;;;;;;6.82;4.10;;;7.90;99.90;;;;;;5065171;28;20619;-63
2020/12/14 10:02:05;;;;;;;5.45;3.60;;;7.90;99.90;;;;;;5072821;28;20079;-63
2020/12/14 10:04:31;;;;;;;7.05;4.18;;;8.00;99.90;;;;;;5053049;28;20041;-63
2020/12/14 10:07:16;;;;;;;7.38;4.60;;;7.90;99.90;;;;;;5067322;28;20093;-62
2020/12/14 10:09:48;;;;;;;7.40;4.40;;;8.00;99.90;;;;;;5064791;28;20095;-62
2020/12/14 10:12:16;;;;;;;11.43;4.95;;;8.00;99.90;;;;;;5070321;28;20094;-63
2020/12/14 10:14:52;;;;;;;9.35;3.92;;;8.00;99.90;;;;;;5072760;28;20067;-62
2020/12/14 10:17:43;;;;;;;6.45;3.80;;;8.10;99.90;;;;;;5065670;28;20063;-63
2020/12/14 10:20:11;;;;;;;5.68;3.50;;;8.10;99.90;;;;;;5069612;28;20040;-63
2020/12/14 10:23:33;;;;;;;7.28;4.55;;;8.10;99.90;;;;;;5066146;28;20075;-62
2020/12/14 10:26:00;;;;;;;8.30;5.13;;;8.20;99.90;;;;;;5072666;28;20043;-62
2020/12/14 10:28:29;;;;;;;7.80;4.65;;;8.20;99.90;;;;;;5072736;28;20115;-63
2020/12/14 10:31:35;;;;;;;7.50;4.30;;;8.30;99.90;;;;;;5072118;28;20072;-63
2020/12/14 10:34:14;;;;;;;6.85;4.38;;;8.30;99.90;;;;;;5066012;28;20047;-63
2020/12/14 10:36:46;;;;;;;6.63;4.40;;;8.40;99.90;;;;;;5075191;28;20048;-63
2020/12/14 10:43:35;;;;;;;8.10;4.38;;;8.40;99.90;;;;;;5075053;28;20036;-63
2020/12/14 10:46:42;;;;;;;7.60;4.43;;;8.40;99.90;;;;;;5072349;28;20059;-62
2020/12/14 10:49:10;;;;;;;9.73;5.57;;;8.40;99.90;;;;;;5056075;28;20040;-63
2020/12/14 10:51:47;;;;;;;8.45;5.07;;;8.50;99.90;;;;;;5060632;28;20040;-63
2020/12/14 10:54:13;;;;;;;8.23;4.82;;;8.60;99.90;;;;;;5075602;28;20045;-62
2020/12/14 11:01:43;;;;;;;10.07;6.05;;;8.60;99.90;;;;;;5074552;28;20051;-62
2020/12/14 11:08:54;;;;;;;7.72;5.00;;;8.80;99.90;;;;;;5071967;28;20027;-63
2020/12/14 11:16:00;;;;;;;6.72;4.72;;;8.90;99.90;;;;;;5075230;28;20039;-63
2020/12/14 11:18:38;;;;;;;9.65;4.38;;;8.90;99.90;;;;;;5075489;28;20059;-63
2020/12/14 11:21:32;;;;;;;9.30;5.07;;;8.90;99.90;;;;;;5069784;28;20448;-63
2020/12/14 11:24:05;;;;;;;6.28;4.57;;;9.00;99.90;;;;;;5059458;28;20044;-63
2020/12/14 11:31:01;;;;;;;6.78;4.70;;;9.10;99.90;;;;;;5074825;28;20078;-63
2020/12/14 11:37:34;;;;;;;7.40;4.90;;;9.20;99.90;;;;;;5074656;28;20039;-63
2020/12/14 11:43:42;;;;;;;6.72;4.60;;;9.30;99.90;;;;;;5074621;28;20041;-63
2020/12/14 11:51:02;;;;;;;7.05;4.97;;;9.40;99.90;;;;;;5074448;28;20043;-63
2020/12/14 11:54:06;;;;;;;5.40;4.13;;;9.40;99.90;;;;;;5085485;28;20131;-63
2020/12/14 11:56:53;;;;;;;6.45;4.60;;;9.40;99.90;;;;;;5074684;28;20484;-63
2020/12/14 11:59:19;;;;;;;7.30;4.78;;;9.50;99.90;;;;;;5072537;28;20060;-63
2020/12/14 12:05:58;;;;;;;11.57;5.00;;;9.50;99.90;;;;;;5069384;28;20109;-66
2020/12/14 12:08:33;;;;;;;6.40;3.92;;;9.60;99.90;;;;;;5074036;28;20040;-65
2020/12/14 12:11:05;;;;;;;6.90;4.85;;;9.60;99.90;;;;;;5070230;28;20044;-65
2020/12/14 12:14:10;;;;;;;7.63;4.25;;;9.60;99.90;;;;;;5072884;28;20201;-63
2020/12/14 12:16:35;;;;;;;8.25;4.85;;;9.70;99.90;;;;;;5059761;28;20044;-64
2020/12/14 12:19:10;;;;;;;6.82;4.28;;;9.60;99.90;;;;;;5073825;28;20040;-64
2020/12/14 12:21:59;;;;;;;;;;;9.70;99.90;;;;;;5061414;28;20044;-63
2020/12/14 12:28:31;;;;;;;5.95;3.85;;;9.60;99.90;;;;;;5073459;28;20495;-64
2020/12/14 12:30:59;;;;;;;8.18;4.47;;;9.60;99.90;;;;;;5073769;28;20041;-64
2020/12/14 12:33:40;;;;;;;7.70;4.38;;;9.60;99.90;;;;;;5073681;28;20476;-65
2020/12/14 12:36:09;;;;;;;6.18;4.00;;;9.70;99.90;;;;;;5074096;28;20091;-64
2020/12/14 12:39:14;;;;;;;5.47;3.90;;;9.60;99.90;;;;;;5068441;28;20473;-64
2020/12/14 12:41:56;;;;;;;6.43;3.83;;;9.60;99.90;;;;;;5059767;28;20045;-64
2020/12/14 12:48:34;;;;;;;7.43;3.25;;;9.70;99.90;;;;;;5073031;28;20522;-64
2020/12/14 12:58:42;;;;;;;4.30;2.95;;;9.80;99.90;;;;;;5052918;28;20162;-64
2020/12/14 13:05:40;;;;;;;4.32;3.08;;;9.80;99.90;;;;;;5073254;28;20032;-64
2020/12/14 13:08:42;;;;;;;6.28;3.42;;;9.90;99.90;;;;;;5053509;28;20037;-63
2020/12/14 13:11:08;;;;;;;7.05;3.47;;;9.90;99.90;;;;;;5053184;28;20037;-64
2020/12/14 13:13:40;;;;;;;4.70;3.20;;;9.90;99.90;;;;;;5069928;28;20041;-64
2020/12/14 13:16:09;;;;;;;4.55;3.08;;;9.90;99.90;;;;;;5073251;28;20051;-63
2020/12/14 13:25:38;;;;;;;5.40;3.80;;;10.00;99.90;;;;;;5073221;28;20503;-63
2020/12/14 13:32:52;;;;;;;6.38;2.97;;;10.00;99.90;;;;;;5072919;28;20047;-63
2020/12/14 13:35:45;;;;;;;4.90;3.53;;;10.00;99.90;;;;;;5073196;28;20392;-63
2020/12/14 13:38:48;;;;;;;5.30;3.47;;;10.00;99.90;;;;;;5055791;28;20048;-64
2020/12/14 13:45:43;;;;;;;5.57;4.00;;;10.00;99.90;;;;;;5068575;28;20032;-64
2020/12/14 13:48:16;;;;;;;6.38;3.67;;;10.00;99.80;;;;;;5053043;28;20077;-64
2020/12/14 13:51:30;;;;;;;7.00;3.47;;;10.10;99.80;;;;;;5072942;28;20049;-64
2020/12/14 13:58:11;;;;;;;4.55;2.80;;;10.00;99.80;;;;;;5052733;28;20260;-63
2020/12/14 14:00:38;;;;;;;3.90;2.63;;;10.00;99.70;;;;;;5062339;28;20080;-64
2020/12/14 14:03:40;;;;;;;5.05;3.10;;;10.10;99.80;;;;;;5072113;28;20157;-64
2020/12/14 14:06:20;;;;;;;5.72;3.45;;;10.10;99.80;;;;;;5057294;28;20040;-64
2020/12/14 14:13:07;;;;;;;5.47;3.10;;;10.00;99.70;;;;;;5076383;28;20047;-64
2020/12/14 14:15:39;;;;;;;5.45;3.72;;;10.10;99.70;;;;;;5072653;28;20040;-64
2020/12/14 14:18:27;;;;;;;6.10;3.42;;;10.10;99.70;;;;;;5075756;28;20044;-64
2020/12/14 14:21:17;;;;;;;5.05;3.67;;;10.00;99.70;;;;;;5076206;28;20101;-64
2020/12/14 14:23:51;;;;;;;4.97;3.20;;;10.00;99.70;;;;;;5060958;28;20041;-63
2020/12/14 14:30:39;;;;;;;6.80;3.17;;;10.00;99.70;;;;;;5076049;28;20031;-64
2020/12/14 14:33:21;;;;;;;5.72;3.60;;;10.00;99.70;;;;;;5071953;28;20068;-65
2020/12/14 14:39:49;;;;;;;4.53;2.83;;;10.00;99.60;;;;;;5075520;28;20079;-63
2020/12/14 14:46:08;;;;;;;5.10;3.13;;;9.90;99.60;;;;;;5075930;28;20031;-63
2020/12/14 14:49:08;;;;;;;5.43;3.50;;;10.00;99.60;;;;;;5063732;28;20040;-63
2020/12/14 14:51:37;;;;;;;6.15;3.33;;;10.00;99.60;;;;;;5071909;28;20127;-63
2020/12/14 14:54:33;;;;;;;4.63;3.47;;;10.00;99.50;;;;;;5075966;28;20166;-63
2020/12/14 14:57:24;;;;;;;7.03;3.58;;;9.90;99.50;;;;;;5075720;28;20045;-63
2020/12/14 15:04:04;;;;;;;5.38;3.03;;;9.90;99.30;;;;;;5062726;28;20063;-64
2020/12/14 15:06:35;;;;;;;4.78;2.90;;;9.80;99.30;;;;;;5075434;28;20036;-63
2020/12/14 15:13:14;;;;;;;3.80;2.67;;;9.70;99.30;;;;;;5074590;28;20400;-63
2020/12/14 15:16:14;;;;;;;6.85;2.85;;;9.60;99.30;;;;;;5085048;28;20206;-62
2020/12/14 15:18:53;;;;;;;4.78;2.90;;;9.50;99.40;;;;;;5059272;28;20040;-62
2020/12/14 15:26:13;;;;;;;6.00;2.92;;;9.50;99.70;;;;;;5075097;28;20543;-63
2020/12/14 15:29:08;;;;;;;4.53;3.00;;;9.60;99.70;;;;;;5064087;28;20514;-63
2020/12/14 15:31:58;;;;;;;5.38;3.00;;;9.50;99.70;;;;;;5062369;28;20472;-63
2020/12/14 15:34:34;;;;;;;5.78;3.40;;;9.50;99.70;;;;;;5064077;28;20044;-62
2020/12/14 15:38:12;;;;;;;4.57;3.17;;;9.50;99.70;;;;;;5071482;28;20639;-62
2020/12/14 15:40:44;;;;;;;4.38;3.03;;;9.40;99.70;;;;;;5067883;28;20119;-62
2020/12/14 15:43:23;;;;;;;5.05;3.45;;;9.40;99.70;;;;;;5075109;28;20044;-62
2020/12/14 15:46:21;;;;;;;4.68;3.35;;;9.50;99.90;;;;;;5074829;28;20048;-62
2020/12/14 15:48:54;;;;;;;7.45;3.40;;;9.40;99.80;;;;;;5070454;28;20047;-62
2020/12/14 15:51:21;;;;;;;6.45;4.10;;;9.40;99.90;;;;;;5062238;28;20395;-62
2020/12/14 15:54:27;;;;;;;6.60;3.72;;;9.40;99.90;;;;;;5062129;28;20053;-62
2020/12/14 15:57:24;;;;;;;6.82;3.90;;;9.30;99.90;;;;;;5074763;28;20529;-63
2020/12/14 16:00:41;;;;;;;5.38;3.17;;;9.30;99.90;;;;;;5056874;28;20069;-63
2020/12/14 16:03:52;;;;;;;6.65;3.35;;;9.30;99.90;;;;;;5056042;28;20075;-63
2020/12/14 16:13:48;;;;;;;8.50;3.88;;;9.20;99.90;;;;;;5057021;28;20053;-62
2020/12/14 16:16:23;;;;;;;8.48;4.28;;;9.20;99.90;;;;;;5074639;28;20591;-63
2020/12/14 16:19:12;;;;;;;5.40;3.88;;;9.20;99.90;;;;;;5073748;28;20044;-62
2020/12/14 16:25:40;;;;;;;5.88;3.85;;;9.10;99.90;;;;;;5073837;28;20039;-63
2020/12/14 16:35:43;;;;;;;8.25;4.30;;;9.00;99.90;;;;;;5055060;28;20035;-63
2020/12/14 16:38:11;;;;;;;6.63;4.07;;;9.00;99.90;;;;;;5054307;28;20053;-62
2020/12/14 16:40:40;;;;;;;10.02;5.55;;;9.00;99.90;;;;;;5068624;28;20049;-63
2020/12/14 16:43:37;;;;;;;7.93;4.90;;;9.00;99.90;;;;;;5073759;28;20072;-63
2020/12/14 16:50:06;;;;;;;7.75;4.70;;;8.90;99.90;;;;;;5073195;28;20391;-64
2020/12/14 16:52:52;;;;;;;9.05;4.65;;;8.90;99.90;;;;;;5073621;28;20163;-66
2020/12/14 16:55:18;;;;;;;10.00;4.97;;;8.90;99.90;;;;;;5053507;28;20041;-65
2020/12/14 16:57:56;;;;;;;8.35;4.75;;;8.90;99.90;;;;;;5055618;28;20067;-61
2020/12/14 17:00:24;;;;;;;7.15;4.75;;;8.90;99.90;;;;;;5073476;28;20041;-66
2020/12/14 17:02:55;;;;;;;7.07;4.53;;;9.00;99.90;;;;;;5073607;28;20067;-65
2020/12/14 17:05:23;;;;;;;7.82;4.63;;;9.00;99.90;;;;;;5073500;28;20048;-63
2020/12/14 17:08:27;;;;;;;11.20;5.40;;;9.00;99.90;;;;;;5072619;28;20050;-64
2020/12/14 17:11:09;;;;;;;;;;;9.00;99.90;;;;;;5073585;28;20060;-62
2020/12/14 17:17:50;;;;;;;8.45;4.38;;;9.00;99.90;;;;;;5067641;28;20075;-63
2020/12/14 17:28:20;;;;;;;9.10;4.78;;;9.10;99.90;;;;;;5072892;28;20045;-64
2020/12/14 17:34:18;;;;;;;8.68;4.57;;;9.20;99.90;;;;;;5071713;28;20086;-64
2020/12/14 17:41:05;;;;;;;9.30;5.15;;;9.30;99.90;;;;;;5058955;28;20045;-64
2020/12/14 17:47:18;;;;;;;8.35;4.80;;;9.40;99.90;;;;;;5076956;28;20132;-63
2020/12/14 17:50:18;;;;;;;7.22;4.50;;;9.40;99.50;;;;;;5056873;28;20056;-64
2020/12/14 18:00:18;;;;;;;6.55;3.30;;;9.50;99.40;;;;;;5076598;28;20055;-63
2020/12/14 18:02:49;;;;;;;6.82;3.88;;;9.50;99.40;;;;;;5076360;28;20428;-63
2020/12/14 18:12:48;;;;;;;7.13;3.95;;;9.50;99.40;;;;;;5076241;28;20503;-63
2020/12/14 18:15:18;;;;;;;10.00;5.00;;;9.60;99.70;;;;;;5056897;28;20503;-63
2020/12/14 18:18:07;;;;;;;8.90;4.53;;;9.50;99.30;;;;;;5072786;28;20553;-64
2020/12/14 18:24:32;;;;;;;7.95;5.20;;;9.50;99.30;;;;;;5075973;28;20034;-64
2020/12/14 18:30:23;;;;;;;7.40;4.28;;;9.50;99.30;;;;;;5056180;28;19961;-64
2020/12/14 21:31:18;;;;;;;11.15;6.05;;;9.40;99.30;;;;;;5066234;28;20484;-63
2020/12/14 21:34:14;;;;;;;11.23;6.20;;;9.40;99.30;;;;;;5059823;28;20109;-63
2020/12/14 21:48:08;;;;;;;11.13;6.47;;;9.30;99.60;;;;;;5071573;28;20067;-63
2020/12/14 21:50:42;;;;;;;12.02;6.32;;;9.30;99.50;;;;;;5073401;28;20461;-62
2020/12/14 21:53:43;;;;;;;11.10;6.60;;;9.30;99.50;;;;;;5073262;28;20538;-63
2020/12/14 21:56:37;;;;;;;10.27;6.38;;;9.30;99.50;;;;;;5053788;28;20049;-63
2020/12/14 22:03:21;;;;;;;8.48;5.45;;;9.30;99.60;;;;;;5072823;28;20046;-63
2020/12/14 22:05:50;;;;;;;11.57;6.10;;;9.30;99.60;;;;;;5068158;28;20063;-63
2020/12/14 22:16:16;;;;;;;10.65;5.57;;;9.20;99.70;;;;;;5053420;28;20488;-62
2020/12/14 22:23:12;;;;;;;9.73;5.57;;;9.20;99.80;;;;;;5072569;28;20036;-63
2020/12/14 22:25:45;;;;;;;9.35;5.53;;;9.20;99.70;;;;;;5066649;28;20469;-63
2020/12/14 22:35:48;;;;;;;8.45;4.72;;;9.20;99.70;;;;;;5075989;28;20047;-63
2020/12/14 22:38:16;;;;;;;10.13;4.63;;;9.20;99.80;;;;;;5071746;28;20395;-63
2020/12/14 22:41:33;;;;;;;13.02;6.13;;;9.20;99.80;;;;;;5076314;28;20067;-63
2020/12/14 22:44:09;;;;;;;12.48;5.50;;;9.20;99.90;;;;;;5061812;28;20044;-63
2020/12/14 22:46:35;;;;;;;11.10;5.32;;;9.20;99.90;;;;;;5065946;28;20040;-63
2020/12/14 22:53:16;;;;;;;8.02;4.50;;;9.10;99.90;;;;;;5075435;28;20047;-63
2020/12/14 22:55:46;;;;;;;10.80;5.95;;;9.10;99.90;;;;;;5070118;28;20040;-63
2020/12/14 22:58:15;;;;;;;13.48;6.05;;;9.10;99.90;;;;;;5076181;28;20044;-63
2020/12/14 23:00:47;;;;;;;11.30;5.38;;;9.10;99.90;;;;;;5070394;28;20490;-63
2020/12/14 23:03:21;;;;;;;8.93;5.95;;;9.10;99.90;;;;;;5056012;28;20104;-63
2020/12/14 23:06:09;;;;;;;9.93;4.88;;;9.10;99.90;;;;;;5058808;28;20103;-63
2020/12/14 23:13:16;;;;;;;15.40;5.78;;;9.10;99.90;;;;;;5075354;28;20093;-63
2020/12/14 23:16:16;;;;;;;10.48;6.18;;;9.10;99.90;;;;;;5055620;28;20049;-63
2020/12/14 23:23:19;;;;;;;10.45;5.85;;;9.10;99.90;;;;;;5062384;28;20048;-63
2020/12/14 23:26:21;;;;;;;11.40;6.30;;;9.10;99.90;;;;;;5073228;28;20539;-63
2020/12/14 23:33:18;;;;;;;11.65;6.50;;;9.10;99.90;;;;;;5070546;28;20044;-63
2020/12/14 23:36:15;;;;;;;12.63;6.90;;;9.10;99.90;;;;;;5055022;28;20037;-62
2020/12/14 23:43:18;;;;;;;12.02;7.20;;;9.00;99.90;;;;;;5074438;28;20079;-63
2020/12/14 23:45:48;;;;;;;11.52;6.13;;;9.00;99.90;;;;;;5070029;28;20071;-63
2020/12/14 23:48:55;;;;;;;10.73;7.15;;;9.10;99.90;;;;;;5074379;28;20048;-63
2020/12/14 23:55:49;;;;;;;13.07;7.50;;;9.10;99.90;;;;;;5074511;28;20085;-63
2020/12/14 23:59:09;;;;;;;15.93;8.23;;;9.10;99.90;;;;;;5070320;28;20120;-63
